sensor_id;sensor_type;location;lat;lon;timestamp;noise_LAeq;noise_LA_min;noise_LA_max;noise_LA01;noise_LA95
48967;Laerm;46511;53.148;8.204;2023-04-03T00:02:08;42.67;40.33;44.69;;
48967;Laerm;46511;53.148;8.204;2023-04-03T00:04:39;42.89;40.23;45.11;;
48967;Laerm;46511;53.148;8.204;2023-04-03T00:07:12;43.13;40.33;45.14;;
48967;Laerm;46511;53.148;8.204;2023-04-03T00:09:43;44.07;39.70;56.89;;
48967;Laerm;46511;53.148;8.204;2023-04-03T00:12:14;42.88;39.34;58.51;;
48967;Laerm;46511;53.148;8.204;2023-04-03T00:14:46;42.99;40.45;45.63;;
48967;Laerm;46511;53.148;8.204;2023-04-03T00:17:17;42.94;38.67;46.52;;
48967;Laerm;46511;53.148;8.204;2023-04-03T00:19:48;43.07;40.62;44.80;;
48967;Laerm;46511;53.148;8.204;2023-04-03T00:22:20;43.07;39.92;45.99;;
48967;Laerm;46511;53.148;8.204;2023-04-03T00:24:51;42.96;40.03;52.08;;
48967;Laerm;46511;53.148;8.204;2023-04-03T00:27:22;42.93;40.33;47.46;;
48967;Laerm;46511;53.148;8.204;2023-04-03T00:29:53;43.51;40.80;49.04;;
48967;Laerm;46511;53.148;8.204;2023-04-03T00:32:25;42.76;40.33;47.65;;
48967;Laerm;46511;53.148;8.204;2023-04-03T00:34:56;47.48;40.43;62.84;;
48967;Laerm;46511;53.148;8.204;2023-04-03T00:37:27;42.90;39.92;45.51;;
48967;Laerm;46511;53.148;8.204;2023-04-03T00:39:59;42.65;40.23;45.27;;
48967;Laerm;46511;53.148;8.204;2023-04-03T00:42:30;43.69;39.70;67.68;;
48967;Laerm;46511;53.148;8.204;2023-04-03T00:47:33;49.49;42.35;66.97;;
48967;Laerm;46511;53.148;8.204;2023-04-03T00:50:05;63.63;40.71;77.14;;
48967;Laerm;46511;53.148;8.204;2023-04-03T00:52:37;43.43;40.98;53.33;;
48967;Laerm;46511;53.148;8.204;2023-04-03T00:55:09;43.45;40.80;46.23;;
48967;Laerm;46511;53.148;8.204;2023-04-03T00:57:42;43.57;41.22;47.20;;
48967;Laerm;46511;53.148;8.204;2023-04-03T01:00:16;48.53;41.68;62.17;;
48967;Laerm;46511;53.148;8.204;2023-04-03T01:02:49;43.69;41.53;53.73;;
48967;Laerm;46511;53.148;8.204;2023-04-03T01:05:21;43.47;40.33;45.36;;
48967;Laerm;46511;53.148;8.204;2023-04-03T01:07:49;43.52;41.30;45.54;;
48967;Laerm;46511;53.148;8.204;2023-04-03T01:10:22;43.91;41.06;46.97;;
48967;Laerm;46511;53.148;8.204;2023-04-03T01:12:53;43.48;40.43;59.76;;
48967;Laerm;46511;53.148;8.204;2023-04-03T01:15:23;43.04;40.43;46.52;;
48967;Laerm;46511;53.148;8.204;2023-04-03T01:17:56;43.13;40.53;45.48;;
48967;Laerm;46511;53.148;8.204;2023-04-03T01:28:17;43.43;40.33;47.12;;
48967;Laerm;46511;53.148;8.204;2023-04-03T01:33:38;43.88;41.22;47.74;;
48967;Laerm;46511;53.148;8.204;2023-04-03T01:36:15;43.50;41.38;47.74;;
48967;Laerm;46511;53.148;8.204;2023-04-03T01:38:47;43.64;41.06;47.18;;
48967;Laerm;46511;53.148;8.204;2023-04-03T01:41:19;43.60;41.46;52.54;;
48967;Laerm;46511;53.148;8.204;2023-04-03T01:43:52;43.64;41.06;47.14;;
48967;Laerm;46511;53.148;8.204;2023-04-03T01:46:23;45.62;40.79;58.66;;
48967;Laerm;46511;53.148;8.204;2023-04-03T01:48:54;43.54;41.14;46.30;;
48967;Laerm;46511;53.148;8.204;2023-04-03T01:51:26;43.62;40.80;45.36;;
48967;Laerm;46511;53.148;8.204;2023-04-03T01:53:57;50.05;39.34;65.56;;
48967;Laerm;46511;53.148;8.204;2023-04-03T01:56:28;43.59;41.06;48.15;;
48967;Laerm;46511;53.148;8.204;2023-04-03T01:58:59;43.52;40.43;47.34;;
48967;Laerm;46511;53.148;8.204;2023-04-03T02:01:31;55.14;41.61;70.05;;
48967;Laerm;46511;53.148;8.204;2023-04-03T02:03:57;44.94;41.06;52.03;;
48967;Laerm;46511;53.148;8.204;2023-04-03T02:06:28;43.77;41.30;47.70;;
48967;Laerm;46511;53.148;8.204;2023-04-03T02:09:00;43.93;41.53;48.60;;
48967;Laerm;46511;53.148;8.204;2023-04-03T02:11:31;43.54;40.71;45.66;;
48967;Laerm;46511;53.148;8.204;2023-04-03T02:14:02;43.42;41.14;45.33;;
48967;Laerm;46511;53.148;8.204;2023-04-03T02:16:33;58.35;41.82;66.72;;
48967;Laerm;46511;53.148;8.204;2023-04-03T02:19:05;44.56;42.16;52.34;;
48967;Laerm;46511;53.148;8.204;2023-04-03T02:21:36;50.92;42.03;67.15;;
48967;Laerm;46511;53.148;8.204;2023-04-03T02:24:07;59.32;43.28;68.23;;
48967;Laerm;46511;53.148;8.204;2023-04-03T02:26:39;44.11;41.89;48.85;;
48967;Laerm;46511;53.148;8.204;2023-04-03T02:29:10;44.65;41.61;50.53;;
48967;Laerm;46511;53.148;8.204;2023-04-03T02:31:41;44.09;41.30;46.35;;
48967;Laerm;46511;53.148;8.204;2023-04-03T02:34:12;51.61;42.35;67.52;;
48967;Laerm;46511;53.148;8.204;2023-04-03T02:36:44;44.40;42.41;46.30;;
48967;Laerm;46511;53.148;8.204;2023-04-03T02:39:16;48.78;42.22;63.29;;
48967;Laerm;46511;53.148;8.204;2023-04-03T02:41:47;44.42;42.59;50.73;;
48967;Laerm;46511;53.148;8.204;2023-04-03T02:44:18;44.38;42.03;46.28;;
48967;Laerm;46511;53.148;8.204;2023-04-03T02:46:50;44.59;42.53;48.36;;
48967;Laerm;46511;53.148;8.204;2023-04-03T02:49:21;44.48;42.64;47.91;;
48967;Laerm;46511;53.148;8.204;2023-04-03T02:51:52;50.39;42.65;70.90;;
48967;Laerm;46511;53.148;8.204;2023-04-03T02:54:23;44.62;42.76;47.83;;
48967;Laerm;46511;53.148;8.204;2023-04-03T02:56:58;44.52;42.09;50.55;;
48967;Laerm;46511;53.148;8.204;2023-04-03T02:59:30;49.03;42.82;75.61;;
48967;Laerm;46511;53.148;8.204;2023-04-03T03:02:01;50.37;42.47;66.69;;
48967;Laerm;46511;53.148;8.204;2023-04-03T03:04:32;44.52;42.98;49.06;;
48967;Laerm;46511;53.148;8.204;2023-04-03T03:07:04;45.12;42.53;57.25;;
48967;Laerm;46511;53.148;8.204;2023-04-03T03:09:35;44.92;42.88;49.46;;
48967;Laerm;46511;53.148;8.204;2023-04-03T03:12:07;45.27;43.09;52.90;;
48967;Laerm;46511;53.148;8.204;2023-04-03T03:14:38;45.30;43.14;52.83;;
48967;Laerm;46511;53.148;8.204;2023-04-03T03:17:09;45.63;43.04;53.10;;
48967;Laerm;46511;53.148;8.204;2023-04-03T03:19:40;55.25;43.54;70.78;;
48967;Laerm;46511;53.148;8.204;2023-04-03T03:22:12;51.69;43.54;63.96;;
48967;Laerm;46511;53.148;8.204;2023-04-03T03:24:43;45.39;43.44;54.08;;
48967;Laerm;46511;53.148;8.204;2023-04-03T03:27:14;46.35;43.34;58.65;;
48967;Laerm;46511;53.148;8.204;2023-04-03T03:29:47;51.61;43.49;66.46;;
48967;Laerm;46511;53.148;8.204;2023-04-03T03:32:18;54.24;43.44;67.51;;
48967;Laerm;46511;53.148;8.204;2023-04-03T03:34:49;50.04;43.19;65.46;;
48967;Laerm;46511;53.148;8.204;2023-04-03T03:37:21;46.69;44.07;53.97;;
48967;Laerm;46511;53.148;8.204;2023-04-03T03:39:52;55.82;43.90;69.69;;
48967;Laerm;46511;53.148;8.204;2023-04-03T03:42:23;52.36;43.54;66.58;;
48967;Laerm;46511;53.148;8.204;2023-04-03T03:44:54;45.62;43.63;52.74;;
48967;Laerm;46511;53.148;8.204;2023-04-03T03:47:26;49.69;42.53;68.74;;
48967;Laerm;46511;53.148;8.204;2023-04-03T03:49:57;45.45;43.34;53.71;;
48967;Laerm;46511;53.148;8.204;2023-04-03T03:52:28;53.08;43.19;71.84;;
48967;Laerm;46511;53.148;8.204;2023-04-03T03:55:01;53.07;43.54;67.69;;
48967;Laerm;46511;53.148;8.204;2023-04-03T03:57:32;51.78;43.68;66.05;;
48967;Laerm;46511;53.148;8.204;2023-04-03T04:00:04;53.67;43.86;67.62;;
48967;Laerm;46511;53.148;8.204;2023-04-03T04:02:35;51.41;43.90;70.75;;
48967;Laerm;46511;53.148;8.204;2023-04-03T04:05:07;53.82;44.11;73.70;;
48967;Laerm;46511;53.148;8.204;2023-04-03T04:07:38;52.81;44.62;65.69;;
48967;Laerm;46511;53.148;8.204;2023-04-03T04:10:09;53.06;44.39;66.50;;
48967;Laerm;46511;53.148;8.204;2023-04-03T04:12:41;54.06;45.30;65.43;;
48967;Laerm;46511;53.148;8.204;2023-04-03T04:15:12;53.30;45.80;65.32;;
48967;Laerm;46511;53.148;8.204;2023-04-03T04:17:43;53.27;45.63;65.89;;
48967;Laerm;46511;53.148;8.204;2023-04-03T04:20:15;54.33;44.94;65.40;;
48967;Laerm;46511;53.148;8.204;2023-04-03T04:22:46;56.83;45.99;67.94;;
48967;Laerm;46511;53.148;8.204;2023-04-03T04:25:17;56.45;45.01;66.72;;
48967;Laerm;46511;53.148;8.204;2023-04-03T04:27:48;55.51;44.87;68.33;;
48967;Laerm;46511;53.148;8.204;2023-04-03T04:30:20;56.13;45.63;67.18;;
48967;Laerm;46511;53.148;8.204;2023-04-03T04:32:51;55.17;44.80;65.68;;
48967;Laerm;46511;53.148;8.204;2023-04-03T04:35:22;61.66;45.04;76.53;;
48967;Laerm;46511;53.148;8.204;2023-04-03T04:37:49;61.40;46.33;79.56;;
48967;Laerm;46511;53.148;8.204;2023-04-03T04:40:20;56.71;44.69;68.23;;
48967;Laerm;46511;53.148;8.204;2023-04-03T04:42:52;62.50;45.45;75.25;;
48967;Laerm;46511;53.148;8.204;2023-04-03T04:45:24;61.08;45.57;76.20;;
48967;Laerm;46511;53.148;8.204;2023-04-03T04:47:56;48.70;44.58;61.81;;
48967;Laerm;46511;53.148;8.204;2023-04-03T04:50:27;53.26;44.76;67.91;;
48967;Laerm;46511;53.148;8.204;2023-04-03T04:52:58;54.91;44.90;67.48;;
48967;Laerm;46511;53.148;8.204;2023-04-03T04:55:29;54.23;45.04;66.89;;
48967;Laerm;46511;53.148;8.204;2023-04-03T04:58:01;51.59;45.01;64.19;;
48967;Laerm;46511;53.148;8.204;2023-04-03T05:00:32;62.25;45.63;77.17;;
48967;Laerm;46511;53.148;8.204;2023-04-03T05:03:03;54.83;45.27;66.07;;
48967;Laerm;46511;53.148;8.204;2023-04-03T05:05:35;51.39;44.90;62.30;;
48967;Laerm;46511;53.148;8.204;2023-04-03T05:08:06;54.42;45.45;66.80;;
48967;Laerm;46511;53.148;8.204;2023-04-03T05:10:39;56.02;45.63;71.06;;
48967;Laerm;46511;53.148;8.204;2023-04-03T05:13:12;55.38;45.99;66.08;;
48967;Laerm;46511;53.148;8.204;2023-04-03T05:15:43;54.63;45.80;67.18;;
48967;Laerm;46511;53.148;8.204;2023-04-03T05:18:14;56.83;45.23;69.59;;
48967;Laerm;46511;53.148;8.204;2023-04-03T05:20:48;57.45;46.10;71.77;;
48967;Laerm;46511;53.148;8.204;2023-04-03T05:23:20;59.05;46.50;68.59;;
48967;Laerm;46511;53.148;8.204;2023-04-03T05:25:51;52.52;45.54;67.01;;
48967;Laerm;46511;53.148;8.204;2023-04-03T05:28:23;55.71;46.23;65.92;;
48967;Laerm;46511;53.148;8.204;2023-04-03T05:30:58;57.10;46.02;68.50;;
48967;Laerm;46511;53.148;8.204;2023-04-03T05:33:30;58.10;45.60;68.09;;
48967;Laerm;46511;53.148;8.204;2023-04-03T05:36:03;57.19;45.48;69.99;;
48967;Laerm;46511;53.148;8.204;2023-04-03T05:38:34;55.12;45.63;68.49;;
48967;Laerm;46511;53.148;8.204;2023-04-03T05:41:06;59.18;45.14;70.38;;
48967;Laerm;46511;53.148;8.204;2023-04-03T05:43:37;57.62;45.28;73.25;;
48967;Laerm;46511;53.148;8.204;2023-04-03T05:46:15;56.53;45.91;67.25;;
48967;Laerm;46511;53.148;8.204;2023-04-03T05:48:47;58.23;45.65;70.13;;
48967;Laerm;46511;53.148;8.204;2023-04-03T05:51:22;54.35;45.72;66.20;;
48967;Laerm;46511;53.148;8.204;2023-04-03T05:54:00;58.45;45.94;69.21;;
48967;Laerm;46511;53.148;8.204;2023-04-03T05:56:34;57.44;45.63;67.60;;
48967;Laerm;46511;53.148;8.204;2023-04-03T05:59:05;57.62;45.33;67.27;;
48967;Laerm;46511;53.148;8.204;2023-04-03T06:01:36;55.57;46.08;67.15;;
48967;Laerm;46511;53.148;8.204;2023-04-03T06:04:08;59.03;46.07;68.16;;
48967;Laerm;46511;53.148;8.204;2023-04-03T06:07:02;58.24;45.86;68.79;;
48967;Laerm;46511;53.148;8.204;2023-04-03T06:09:33;56.90;45.07;67.85;;
48967;Laerm;46511;53.148;8.204;2023-04-03T06:12:05;57.26;45.11;70.70;;
48967;Laerm;46511;53.148;8.204;2023-04-03T06:14:36;56.47;45.11;67.75;;
48967;Laerm;46511;53.148;8.204;2023-04-03T06:17:08;54.75;45.39;67.19;;
48967;Laerm;46511;53.148;8.204;2023-04-03T06:19:40;51.74;44.47;64.37;;
48967;Laerm;46511;53.148;8.204;2023-04-03T06:22:11;55.84;45.51;69.54;;
48967;Laerm;46511;53.148;8.204;2023-04-03T06:24:43;56.79;45.30;68.12;;
48967;Laerm;46511;53.148;8.204;2023-04-03T06:27:14;54.25;44.76;65.81;;
48967;Laerm;46511;53.148;8.204;2023-04-03T06:29:47;58.55;44.23;70.82;;
48967;Laerm;46511;53.148;8.204;2023-04-03T06:32:19;56.09;44.35;68.00;;
48967;Laerm;46511;53.148;8.204;2023-04-03T06:34:51;60.03;45.14;69.87;;
48967;Laerm;46511;53.148;8.204;2023-04-03T06:37:24;57.82;45.97;68.98;;
48967;Laerm;46511;53.148;8.204;2023-04-03T06:39:59;58.65;45.60;71.46;;
48967;Laerm;46511;53.148;8.204;2023-04-03T06:42:34;55.41;44.31;69.46;;
48967;Laerm;46511;53.148;8.204;2023-04-03T06:45:06;54.84;44.39;66.39;;
48967;Laerm;46511;53.148;8.204;2023-04-03T06:47:38;58.53;44.43;71.27;;
48967;Laerm;46511;53.148;8.204;2023-04-03T06:50:11;54.49;44.47;75.05;;
48967;Laerm;46511;53.148;8.204;2023-04-03T06:52:45;54.16;44.15;63.80;;
48967;Laerm;46511;53.148;8.204;2023-04-03T06:55:16;54.38;43.58;69.12;;
48967;Laerm;46511;53.148;8.204;2023-04-03T06:57:47;53.71;43.86;72.94;;
48967;Laerm;46511;53.148;8.204;2023-04-03T07:00:19;57.85;43.72;70.71;;
48967;Laerm;46511;53.148;8.204;2023-04-03T07:02:51;54.78;44.15;67.17;;
48967;Laerm;46511;53.148;8.204;2023-04-03T07:05:23;53.74;44.03;67.08;;
48967;Laerm;46511;53.148;8.204;2023-04-03T07:07:54;51.39;43.24;65.54;;
48967;Laerm;46511;53.148;8.204;2023-04-03T07:10:26;48.97;43.04;62.26;;
48967;Laerm;46511;53.148;8.204;2023-04-03T07:12:57;50.79;43.63;65.21;;
48967;Laerm;46511;53.148;8.204;2023-04-03T07:15:29;57.42;43.63;68.44;;
48967;Laerm;46511;53.148;8.204;2023-04-03T07:18:01;53.02;43.90;64.49;;
48967;Laerm;46511;53.148;8.204;2023-04-03T07:20:32;58.11;44.58;69.49;;
48967;Laerm;46511;53.148;8.204;2023-04-03T07:23:03;54.84;44.35;68.00;;
48967;Laerm;46511;53.148;8.204;2023-04-03T07:25:34;58.36;44.39;70.45;;
48967;Laerm;46511;53.148;8.204;2023-04-03T07:28:06;58.80;43.94;72.02;;
48967;Laerm;46511;53.148;8.204;2023-04-03T07:30:44;58.62;44.39;69.36;;
48967;Laerm;46511;53.148;8.204;2023-04-03T07:33:17;55.17;42.98;66.83;;
48967;Laerm;46511;53.148;8.204;2023-04-03T07:35:49;60.77;44.94;75.12;;
48967;Laerm;46511;53.148;8.204;2023-04-03T07:38:20;54.68;43.81;72.86;;
48967;Laerm;46511;53.148;8.204;2023-04-03T07:40:52;63.45;43.34;79.19;;
48967;Laerm;46511;53.148;8.204;2023-04-03T07:43:23;56.48;43.86;69.86;;
48967;Laerm;46511;53.148;8.204;2023-04-03T07:45:55;58.17;44.27;73.99;;
48967;Laerm;46511;53.148;8.204;2023-04-03T07:48:27;55.26;44.58;65.09;;
48967;Laerm;46511;53.148;8.204;2023-04-03T07:51:02;57.09;43.77;68.11;;
48967;Laerm;46511;53.148;8.204;2023-04-03T07:53:34;57.49;43.90;67.81;;
48967;Laerm;46511;53.148;8.204;2023-04-03T07:56:06;55.68;43.85;72.14;;
48967;Laerm;46511;53.148;8.204;2023-04-03T07:58:38;57.21;44.07;72.57;;
48967;Laerm;46511;53.148;8.204;2023-04-03T08:01:09;57.63;44.80;70.64;;
48967;Laerm;46511;53.148;8.204;2023-04-03T08:03:41;57.46;43.09;69.19;;
48967;Laerm;46511;53.148;8.204;2023-04-03T08:06:12;57.72;43.81;68.75;;
48967;Laerm;46511;53.148;8.204;2023-04-03T08:08:46;58.39;42.88;70.30;;
48967;Laerm;46511;53.148;8.204;2023-04-03T08:11:13;54.57;43.86;67.12;;
48967;Laerm;46511;53.148;8.204;2023-04-03T08:13:44;58.12;43.58;69.73;;
48967;Laerm;46511;53.148;8.204;2023-04-03T08:16:18;51.89;43.04;62.85;;
48967;Laerm;46511;53.148;8.204;2023-04-03T08:18:51;63.33;43.14;75.29;;
48967;Laerm;46511;53.148;8.204;2023-04-03T08:21:22;59.08;43.04;69.49;;
48967;Laerm;46511;53.148;8.204;2023-04-03T08:23:53;53.96;42.65;65.33;;
48967;Laerm;46511;53.148;8.204;2023-04-03T08:26:25;55.21;41.96;64.92;;
48967;Laerm;46511;53.148;8.204;2023-04-03T08:28:57;56.10;40.62;73.75;;
48967;Laerm;46511;53.148;8.204;2023-04-03T08:31:29;57.23;42.09;68.91;;
48967;Laerm;46511;53.148;8.204;2023-04-03T08:34:00;59.44;43.29;70.75;;
48967;Laerm;46511;53.148;8.204;2023-04-03T08:36:31;57.35;44.39;67.98;;
48967;Laerm;46511;53.148;8.204;2023-04-03T08:39:03;61.01;45.39;73.00;;
48967;Laerm;46511;53.148;8.204;2023-04-03T08:41:39;57.43;43.39;68.30;;
48967;Laerm;46511;53.148;8.204;2023-04-03T08:44:17;55.50;41.06;73.28;;
48967;Laerm;46511;53.148;8.204;2023-04-03T08:47:04;55.72;43.09;78.35;;
48967;Laerm;46511;53.148;8.204;2023-04-03T08:49:44;58.07;42.29;69.86;;
48967;Laerm;46511;53.148;8.204;2023-04-03T08:52:21;55.87;39.70;67.47;;
48967;Laerm;46511;53.148;8.204;2023-04-03T08:55:00;81.39;40.23;102.59;;
48967;Laerm;46511;53.148;8.204;2023-04-03T08:57:39;63.32;39.99;77.86;;
48967;Laerm;46511;53.148;8.204;2023-04-03T09:00:19;57.55;42.03;70.75;;
48967;Laerm;46511;53.148;8.204;2023-04-03T09:02:53;57.06;40.43;68.42;;
48967;Laerm;46511;53.148;8.204;2023-04-03T09:06:05;56.63;40.53;70.14;;
48967;Laerm;46511;53.148;8.204;2023-04-03T09:14:39;57.54;41.68;74.75;;
48967;Laerm;46511;53.148;8.204;2023-04-03T09:17:24;51.53;39.21;64.12;;
48967;Laerm;46511;53.148;8.204;2023-04-03T09:22:45;59.06;39.46;88.19;;
48967;Laerm;46511;53.148;8.204;2023-04-03T09:25:20;56.66;42.88;71.06;;
48967;Laerm;46511;53.148;8.204;2023-04-03T09:27:53;60.26;45.66;69.93;;
48967;Laerm;46511;53.148;8.204;2023-04-03T09:30:25;61.30;42.88;73.79;;
48967;Laerm;46511;53.148;8.204;2023-04-03T09:32:57;58.56;41.89;74.18;;
48967;Laerm;46511;53.148;8.204;2023-04-03T09:35:34;52.82;39.70;65.09;;
48967;Laerm;46511;53.148;8.204;2023-04-03T09:40:48;57.15;41.38;74.67;;
48967;Laerm;46511;53.148;8.204;2023-04-03T09:43:27;57.55;42.16;68.68;;
48967;Laerm;46511;53.148;8.204;2023-04-03T09:46:32;56.22;41.38;68.37;;
48967;Laerm;46511;53.148;8.204;2023-04-03T09:49:05;53.66;41.30;63.94;;
48967;Laerm;46511;53.148;8.204;2023-04-03T09:51:36;55.10;42.59;66.08;;
48967;Laerm;46511;53.148;8.204;2023-04-03T09:54:32;55.77;40.62;67.95;;
48967;Laerm;46511;53.148;8.204;2023-04-03T09:57:13;55.64;41.22;66.12;;
48967;Laerm;46511;53.148;8.204;2023-04-03T09:59:47;56.50;42.16;68.50;;
48967;Laerm;46511;53.148;8.204;2023-04-03T10:02:30;50.63;43.04;63.00;;
48967;Laerm;46511;53.148;8.204;2023-04-03T10:05:23;52.45;38.67;66.85;;
48967;Laerm;46511;53.148;8.204;2023-04-03T10:10:47;54.74;40.62;67.28;;
48967;Laerm;46511;53.148;8.204;2023-04-03T10:13:20;56.44;40.71;67.08;;
48967;Laerm;46511;53.148;8.204;2023-04-03T10:15:58;61.24;41.82;72.64;;
48967;Laerm;46511;53.148;8.204;2023-04-03T10:18:42;55.77;39.58;77.34;;
48967;Laerm;46511;53.148;8.204;2023-04-03T10:21:33;55.34;40.23;69.03;;
48967;Laerm;46511;53.148;8.204;2023-04-03T10:24:19;57.75;43.09;69.61;;
48967;Laerm;46511;53.148;8.204;2023-04-03T10:27:13;53.87;42.41;69.83;;
48967;Laerm;46511;53.148;8.204;2023-04-03T10:29:52;65.24;43.14;78.27;;
48967;Laerm;46511;53.148;8.204;2023-04-03T10:32:54;55.99;40.03;69.61;;
48967;Laerm;46511;53.148;8.204;2023-04-03T10:41:54;54.34;39.46;69.69;;
48967;Laerm;46511;53.148;8.204;2023-04-03T10:47:34;53.34;39.70;66.59;;
48967;Laerm;46511;53.148;8.204;2023-04-03T10:50:27;55.68;41.82;66.41;;
48967;Laerm;46511;53.148;8.204;2023-04-03T10:58:50;53.49;40.33;66.00;;
48967;Laerm;46511;53.148;8.204;2023-04-03T11:01:29;51.60;38.81;64.86;;
48967;Laerm;46511;53.148;8.204;2023-04-03T11:03:59;56.04;40.98;70.31;;
48967;Laerm;46511;53.148;8.204;2023-04-03T11:06:40;59.76;41.89;75.42;;
48967;Laerm;46511;53.148;8.204;2023-04-03T11:09:30;55.06;41.46;69.54;;
48967;Laerm;46511;53.148;8.204;2023-04-03T11:14:47;55.16;41.61;68.25;;
48967;Laerm;46511;53.148;8.204;2023-04-03T11:17:28;50.83;38.52;66.56;;
48967;Laerm;46511;53.148;8.204;2023-04-03T11:20:15;55.53;38.95;74.96;;
48967;Laerm;46511;53.148;8.204;2023-04-03T11:22:51;55.18;39.70;67.13;;
48967;Laerm;46511;53.148;8.204;2023-04-03T11:25:29;53.76;40.98;69.47;;
48967;Laerm;46511;53.148;8.204;2023-04-03T11:28:06;57.82;41.06;74.71;;
48967;Laerm;46511;53.148;8.204;2023-04-03T11:31:08;51.91;40.98;65.80;;
48967;Laerm;46511;53.148;8.204;2023-04-03T11:36:33;56.99;43.94;71.24;;
48967;Laerm;46511;53.148;8.204;2023-04-03T11:39:35;55.14;38.81;70.07;;
48967;Laerm;46511;53.148;8.204;2023-04-03T11:45:17;54.56;42.35;66.99;;
48967;Laerm;46511;53.148;8.204;2023-04-03T11:51:02;61.11;42.41;80.20;;
48967;Laerm;46511;53.148;8.204;2023-04-03T11:53:52;55.07;39.46;68.30;;
48967;Laerm;46511;53.148;8.204;2023-04-03T12:04:22;54.68;43.04;64.21;;
48967;Laerm;46511;53.148;8.204;2023-04-03T12:07:13;49.92;40.33;67.66;;
48967;Laerm;46511;53.148;8.204;2023-04-03T12:12:26;58.57;41.46;79.64;;
48967;Laerm;46511;53.148;8.204;2023-04-03T12:17:49;53.20;40.89;68.11;;
48967;Laerm;46511;53.148;8.204;2023-04-03T12:26:01;54.96;40.71;64.94;;
48967;Laerm;46511;53.148;8.204;2023-04-03T12:28:38;55.80;41.06;74.85;;
48967;Laerm;46511;53.148;8.204;2023-04-03T12:31:11;56.10;41.53;69.85;;
48967;Laerm;46511;53.148;8.204;2023-04-03T12:37:00;55.03;41.61;66.57;;
48967;Laerm;46511;53.148;8.204;2023-04-03T12:39:54;55.71;41.96;68.16;;
48967;Laerm;46511;53.148;8.204;2023-04-03T12:45:41;53.92;41.96;69.06;;
48967;Laerm;46511;53.148;8.204;2023-04-03T12:48:18;55.07;39.46;66.19;;
48967;Laerm;46511;53.148;8.204;2023-04-03T12:50:54;60.65;43.14;72.14;;
48967;Laerm;46511;53.148;8.204;2023-04-03T12:53:33;55.63;42.22;67.09;;
48967;Laerm;46511;53.148;8.204;2023-04-03T12:56:24;54.96;39.58;73.43;;
48967;Laerm;46511;53.148;8.204;2023-04-03T12:59:33;62.14;41.75;86.99;;
48967;Laerm;46511;53.148;8.204;2023-04-03T13:02:18;56.01;41.82;70.54;;
48967;Laerm;46511;53.148;8.204;2023-04-03T13:04:57;57.28;40.53;69.51;;
48967;Laerm;46511;53.148;8.204;2023-04-03T13:07:33;54.16;40.13;75.01;;
48967;Laerm;46511;53.148;8.204;2023-04-03T13:12:51;55.29;40.62;73.89;;
48967;Laerm;46511;53.148;8.204;2023-04-03T13:17:54;51.26;42.71;65.07;;
48967;Laerm;46511;53.148;8.204;2023-04-03T13:20:28;54.48;39.46;69.65;;
48967;Laerm;46511;53.148;8.204;2023-04-03T13:23:05;55.52;39.70;69.42;;
48967;Laerm;46511;53.148;8.204;2023-04-03T13:25:43;56.07;43.24;68.70;;
48967;Laerm;46511;53.148;8.204;2023-04-03T13:28:19;57.54;40.13;74.30;;
48967;Laerm;46511;53.148;8.204;2023-04-03T13:33:36;56.61;43.29;76.99;;
48967;Laerm;46511;53.148;8.204;2023-04-03T13:36:19;60.32;41.61;76.07;;
48967;Laerm;46511;53.148;8.204;2023-04-03T13:39:03;57.43;42.03;68.97;;
48967;Laerm;46511;53.148;8.204;2023-04-03T13:41:38;60.73;50.23;69.95;;
48967;Laerm;46511;53.148;8.204;2023-04-03T13:44:36;56.24;42.47;67.51;;
48967;Laerm;46511;53.148;8.204;2023-04-03T13:49:44;55.75;42.41;67.67;;
48967;Laerm;46511;53.148;8.204;2023-04-03T13:52:39;58.51;42.16;67.80;;
48967;Laerm;46511;53.148;8.204;2023-04-03T14:00:51;54.69;42.09;75.71;;
48967;Laerm;46511;53.148;8.204;2023-04-03T14:03:32;53.87;40.33;66.55;;
48967;Laerm;46511;53.148;8.204;2023-04-03T14:06:05;56.91;43.24;68.69;;
48967;Laerm;46511;53.148;8.204;2023-04-03T14:08:37;60.54;43.94;72.96;;
48967;Laerm;46511;53.148;8.204;2023-04-03T14:11:14;51.20;41.68;65.13;;
48967;Laerm;46511;53.148;8.204;2023-04-03T14:13:47;54.26;43.19;69.48;;
48967;Laerm;46511;53.148;8.204;2023-04-03T14:16:22;54.57;42.03;69.39;;
48967;Laerm;46511;53.148;8.204;2023-04-03T14:18:54;55.41;42.03;65.79;;
48967;Laerm;46511;53.148;8.204;2023-04-03T14:21:25;58.76;43.58;73.15;;
48967;Laerm;46511;53.148;8.204;2023-04-03T14:23:56;51.91;42.59;68.41;;
48967;Laerm;46511;53.148;8.204;2023-04-03T14:26:28;56.87;42.22;74.66;;
48967;Laerm;46511;53.148;8.204;2023-04-03T14:29:01;58.28;42.53;71.20;;
48967;Laerm;46511;53.148;8.204;2023-04-03T14:31:32;55.40;42.82;66.35;;
48967;Laerm;46511;53.148;8.204;2023-04-03T14:34:04;57.93;42.47;71.72;;
48967;Laerm;46511;53.148;8.204;2023-04-03T14:36:35;53.72;41.96;66.55;;
48967;Laerm;46511;53.148;8.204;2023-04-03T14:39:08;57.05;42.59;72.95;;
48967;Laerm;46511;53.148;8.204;2023-04-03T14:41:42;55.62;42.59;66.00;;
48967;Laerm;46511;53.148;8.204;2023-04-03T14:44:14;54.53;42.59;65.58;;
48967;Laerm;46511;53.148;8.204;2023-04-03T14:46:45;56.01;41.96;69.83;;
48967;Laerm;46511;53.148;8.204;2023-04-03T14:49:19;52.72;41.96;64.24;;
48967;Laerm;46511;53.148;8.204;2023-04-03T14:51:52;55.06;41.53;67.66;;
48967;Laerm;46511;53.148;8.204;2023-04-03T14:54:24;56.03;43.04;67.28;;
48967;Laerm;46511;53.148;8.204;2023-04-03T14:57:00;57.03;42.47;68.70;;
48967;Laerm;46511;53.148;8.204;2023-04-03T14:59:32;53.01;40.98;71.17;;
48967;Laerm;46511;53.148;8.204;2023-04-03T15:02:24;57.08;42.59;67.43;;
48967;Laerm;46511;53.148;8.204;2023-04-03T15:04:57;53.54;42.09;66.92;;
48967;Laerm;46511;53.148;8.204;2023-04-03T15:07:30;52.27;41.89;68.88;;
48967;Laerm;46511;53.148;8.204;2023-04-03T15:10:23;56.17;42.03;72.69;;
48967;Laerm;46511;53.148;8.204;2023-04-03T15:12:56;56.91;39.92;66.95;;
48967;Laerm;46511;53.148;8.204;2023-04-03T15:15:29;53.88;41.61;64.93;;
48967;Laerm;46511;53.148;8.204;2023-04-03T15:18:01;55.74;39.34;65.72;;
48967;Laerm;46511;53.148;8.204;2023-04-03T15:20:32;59.92;41.38;78.99;;
48967;Laerm;46511;53.148;8.204;2023-04-03T15:23:00;57.91;40.89;66.78;;
48967;Laerm;46511;53.148;8.204;2023-04-03T15:25:32;56.63;42.47;67.77;;
48967;Laerm;46511;53.148;8.204;2023-04-03T15:28:04;54.71;41.96;65.73;;
48967;Laerm;46511;53.148;8.204;2023-04-03T15:30:36;64.17;42.53;81.08;;
48967;Laerm;46511;53.148;8.204;2023-04-03T15:33:09;54.68;41.06;66.85;;
48967;Laerm;46511;53.148;8.204;2023-04-03T15:35:40;59.20;43.29;78.20;;
48967;Laerm;46511;53.148;8.204;2023-04-03T15:38:12;59.68;42.82;72.66;;
48967;Laerm;46511;53.148;8.204;2023-04-03T15:40:43;57.11;42.59;69.74;;
48967;Laerm;46511;53.148;8.204;2023-04-03T15:43:14;52.82;40.98;66.74;;
48967;Laerm;46511;53.148;8.204;2023-04-03T15:45:46;57.85;42.93;73.22;;
48967;Laerm;46511;53.148;8.204;2023-04-03T15:48:18;59.90;40.98;76.68;;
48967;Laerm;46511;53.148;8.204;2023-04-03T15:50:49;56.39;40.33;73.68;;
48967;Laerm;46511;53.148;8.204;2023-04-03T15:53:20;54.57;41.96;70.54;;
48967;Laerm;46511;53.148;8.204;2023-04-03T15:55:52;56.68;40.03;73.57;;
48967;Laerm;46511;53.148;8.204;2023-04-03T15:58:23;49.02;41.38;62.03;;
48967;Laerm;46511;53.148;8.204;2023-04-03T16:00:54;56.53;41.68;67.89;;